sensor_id;sensor_type;location;lat;lon;timestamp;temperature;humidity
18450;DHT22;9354;50.194;7.690;2024-03-22T00:02:03;9.50;99.90
18450;DHT22;9354;50.194;7.690;2024-03-22T00:04:29;9.40;99.90
18450;DHT22;9354;50.194;7.690;2024-03-22T00:06:56;9.30;99.90
18450;DHT22;9354;50.194;7.690;2024-03-22T00:09:23;9.30;99.90
18450;DHT22;9354;50.194;7.690;2024-03-22T00:11:50;9.30;99.90
18450;DHT22;9354;50.194;7.690;2024-03-22T00:14:18;9.20;99.90
18450;DHT22;9354;50.194;7.690;2024-03-22T00:16:45;9.20;99.90
18450;DHT22;9354;50.194;7.690;2024-03-22T00:19:12;9.10;99.90
18450;DHT22;9354;50.194;7.690;2024-03-22T00:21:39;9.10;99.90
18450;DHT22;9354;50.194;7.690;2024-03-22T00:24:05;9.10;99.90
18450;DHT22;9354;50.194;7.690;2024-03-22T00:26:33;9.10;99.90
18450;DHT22;9354;50.194;7.690;2024-03-22T00:28:59;9.20;99.90
18450;DHT22;9354;50.194;7.690;2024-03-22T00:31:28;9.20;99.90
18450;DHT22;9354;50.194;7.690;2024-03-22T00:33:54;9.20;99.90
18450;DHT22;9354;50.194;7.690;2024-03-22T00:36:22;9.20;99.90
18450;DHT22;9354;50.194;7.690;2024-03-22T00:38:48;9.20;99.90
18450;DHT22;9354;50.194;7.690;2024-03-22T00:41:16;9.30;99.90
18450;DHT22;9354;50.194;7.690;2024-03-22T00:43:42;9.30;99.90
18450;DHT22;9354;50.194;7.690;2024-03-22T00:46:09;9.20;99.90
18450;DHT22;9354;50.194;7.690;2024-03-22T00:48:37;9.30;99.90
18450;DHT22;9354;50.194;7.690;2024-03-22T00:51:05;9.20;99.90
18450;DHT22;9354;50.194;7.690;2024-03-22T00:53:31;9.30;99.90
18450;DHT22;9354;50.194;7.690;2024-03-22T00:55:59;9.30;99.90
18450;DHT22;9354;50.194;7.690;2024-03-22T00:58:26;9.20;99.90
18450;DHT22;9354;50.194;7.690;2024-03-22T01:00:54;9.20;99.90
18450;DHT22;9354;50.194;7.690;2024-03-22T01:03:20;9.20;99.90
18450;DHT22;9354;50.194;7.690;2024-03-22T01:05:49;9.20;99.90
18450;DHT22;9354;50.194;7.690;2024-03-22T01:08:16;9.10;99.90
18450;DHT22;9354;50.194;7.690;2024-03-22T01:10:43;9.10;99.90
18450;DHT22;9354;50.194;7.690;2024-03-22T01:13:09;9.10;99.90
18450;DHT22;9354;50.194;7.690;2024-03-22T01:15:37;9.20;99.90
18450;DHT22;9354;50.194;7.690;2024-03-22T01:18:04;9.20;99.90
18450;DHT22;9354;50.194;7.690;2024-03-22T01:20:31;9.30;99.90
18450;DHT22;9354;50.194;7.690;2024-03-22T01:23:00;9.30;99.90
18450;DHT22;9354;50.194;7.690;2024-03-22T01:25:28;9.20;99.90
18450;DHT22;9354;50.194;7.690;2024-03-22T01:27:55;9.20;99.90
18450;DHT22;9354;50.194;7.690;2024-03-22T01:30:23;9.20;99.90
18450;DHT22;9354;50.194;7.690;2024-03-22T01:32:49;9.20;99.90
18450;DHT22;9354;50.194;7.690;2024-03-22T01:35:16;9.20;99.90
18450;DHT22;9354;50.194;7.690;2024-03-22T01:37:43;9.20;99.90
18450;DHT22;9354;50.194;7.690;2024-03-22T01:40:13;9.20;99.90
18450;DHT22;9354;50.194;7.690;2024-03-22T01:42:39;9.20;99.90
18450;DHT22;9354;50.194;7.690;2024-03-22T01:45:12;9.30;99.90
18450;DHT22;9354;50.194;7.690;2024-03-22T01:47:39;9.30;99.90
18450;DHT22;9354;50.194;7.690;2024-03-22T01:50:08;9.40;99.90
18450;DHT22;9354;50.194;7.690;2024-03-22T01:52:36;9.40;99.90
18450;DHT22;9354;50.194;7.690;2024-03-22T01:55:04;9.40;99.90
18450;DHT22;9354;50.194;7.690;2024-03-22T01:57:34;9.40;99.90
18450;DHT22;9354;50.194;7.690;2024-03-22T02:00:02;9.50;99.90
18450;DHT22;9354;50.194;7.690;2024-03-22T02:02:29;9.50;99.90
18450;DHT22;9354;50.194;7.690;2024-03-22T02:04:57;9.60;99.90
18450;DHT22;9354;50.194;7.690;2024-03-22T02:07:23;9.60;99.90
18450;DHT22;9354;50.194;7.690;2024-03-22T02:09:51;9.70;99.90
18450;DHT22;9354;50.194;7.690;2024-03-22T02:12:17;9.70;99.90
18450;DHT22;9354;50.194;7.690;2024-03-22T02:14:46;9.80;99.90
18450;DHT22;9354;50.194;7.690;2024-03-22T02:17:12;9.80;99.90
18450;DHT22;9354;50.194;7.690;2024-03-22T02:19:39;9.70;99.90
18450;DHT22;9354;50.194;7.690;2024-03-22T02:22:06;9.70;99.90
18450;DHT22;9354;50.194;7.690;2024-03-22T02:24:35;9.60;99.90
18450;DHT22;9354;50.194;7.690;2024-03-22T02:27:01;9.60;99.90
18450;DHT22;9354;50.194;7.690;2024-03-22T02:29:28;9.60;99.90
18450;DHT22;9354;50.194;7.690;2024-03-22T02:31:55;9.60;99.90
18450;DHT22;9354;50.194;7.690;2024-03-22T02:34:24;9.60;99.90
18450;DHT22;9354;50.194;7.690;2024-03-22T02:36:50;9.60;99.90
18450;DHT22;9354;50.194;7.690;2024-03-22T02:39:17;9.70;99.90
18450;DHT22;9354;50.194;7.690;2024-03-22T02:41:45;9.70;99.90
18450;DHT22;9354;50.194;7.690;2024-03-22T02:44:13;9.80;99.90
18450;DHT22;9354;50.194;7.690;2024-03-22T02:46:39;9.80;99.90
18450;DHT22;9354;50.194;7.690;2024-03-22T02:49:06;9.70;99.90
18450;DHT22;9354;50.194;7.690;2024-03-22T02:51:33;9.70;99.90
18450;DHT22;9354;50.194;7.690;2024-03-22T02:54:00;9.80;99.90
18450;DHT22;9354;50.194;7.690;2024-03-22T02:56:27;9.80;99.90
18450;DHT22;9354;50.194;7.690;2024-03-22T02:58:56;9.90;99.90
18450;DHT22;9354;50.194;7.690;2024-03-22T03:01:23;9.90;99.90
18450;DHT22;9354;50.194;7.690;2024-03-22T03:03:50;9.90;99.90
18450;DHT22;9354;50.194;7.690;2024-03-22T03:06:16;10.00;99.90
18450;DHT22;9354;50.194;7.690;2024-03-22T03:08:46;10.00;99.90
18450;DHT22;9354;50.194;7.690;2024-03-22T03:11:12;10.00;99.90
18450;DHT22;9354;50.194;7.690;2024-03-22T03:13:40;10.00;99.90
18450;DHT22;9354;50.194;7.690;2024-03-22T03:16:07;10.10;99.90
18450;DHT22;9354;50.194;7.690;2024-03-22T03:18:35;10.10;99.90
18450;DHT22;9354;50.194;7.690;2024-03-22T03:21:01;10.10;99.90
18450;DHT22;9354;50.194;7.690;2024-03-22T03:23:29;10.10;99.90
18450;DHT22;9354;50.194;7.690;2024-03-22T03:25:55;10.10;99.90
18450;DHT22;9354;50.194;7.690;2024-03-22T03:28:23;10.10;99.90
18450;DHT22;9354;50.194;7.690;2024-03-22T03:30:52;10.10;99.90
18450;DHT22;9354;50.194;7.690;2024-03-22T03:33:20;10.10;99.90
18450;DHT22;9354;50.194;7.690;2024-03-22T03:35:47;10.10;99.90
18450;DHT22;9354;50.194;7.690;2024-03-22T03:38:14;10.10;99.90
18450;DHT22;9354;50.194;7.690;2024-03-22T03:40:41;10.10;99.90
18450;DHT22;9354;50.194;7.690;2024-03-22T03:43:08;10.10;99.90
18450;DHT22;9354;50.194;7.690;2024-03-22T03:45:36;10.00;99.90
18450;DHT22;9354;50.194;7.690;2024-03-22T03:48:04;10.00;99.90
18450;DHT22;9354;50.194;7.690;2024-03-22T03:50:32;10.10;99.90
18450;DHT22;9354;50.194;7.690;2024-03-22T03:52:59;10.10;99.90
18450;DHT22;9354;50.194;7.690;2024-03-22T03:55:26;10.10;99.90
18450;DHT22;9354;50.194;7.690;2024-03-22T03:57:54;10.10;99.90
18450;DHT22;9354;50.194;7.690;2024-03-22T04:00:20;10.10;99.90
18450;DHT22;9354;50.194;7.690;2024-03-22T04:02:49;10.10;99.90
18450;DHT22;9354;50.194;7.690;2024-03-22T04:05:15;10.10;99.90
18450;DHT22;9354;50.194;7.690;2024-03-22T04:07:47;10.00;99.90
18450;DHT22;9354;50.194;7.690;2024-03-22T04:10:13;10.00;99.90
18450;DHT22;9354;50.194;7.690;2024-03-22T04:12:41;10.00;99.90
18450;DHT22;9354;50.194;7.690;2024-03-22T04:15:08;9.90;99.90
18450;DHT22;9354;50.194;7.690;2024-03-22T04:17:36;9.90;99.90
18450;DHT22;9354;50.194;7.690;2024-03-22T04:20:02;9.90;99.90
18450;DHT22;9354;50.194;7.690;2024-03-22T04:22:30;9.80;99.90
18450;DHT22;9354;50.194;7.690;2024-03-22T04:24:58;9.90;99.90
18450;DHT22;9354;50.194;7.690;2024-03-22T04:27:25;9.90;99.90
18450;DHT22;9354;50.194;7.690;2024-03-22T04:29:51;9.90;99.90
18450;DHT22;9354;50.194;7.690;2024-03-22T04:32:19;9.90;99.90
18450;DHT22;9354;50.194;7.690;2024-03-22T04:34:45;9.90;99.90
18450;DHT22;9354;50.194;7.690;2024-03-22T04:37:13;10.00;99.90
18450;DHT22;9354;50.194;7.690;2024-03-22T04:39:40;9.90;99.90
18450;DHT22;9354;50.194;7.690;2024-03-22T04:42:09;10.00;99.90
18450;DHT22;9354;50.194;7.690;2024-03-22T04:44:36;9.90;99.90
18450;DHT22;9354;50.194;7.690;2024-03-22T04:47:04;9.90;99.90
18450;DHT22;9354;50.194;7.690;2024-03-22T04:49:30;9.90;99.90
18450;DHT22;9354;50.194;7.690;2024-03-22T04:51:58;9.90;99.90
18450;DHT22;9354;50.194;7.690;2024-03-22T04:54:24;9.80;99.90
18450;DHT22;9354;50.194;7.690;2024-03-22T04:56:52;9.80;99.90
18450;DHT22;9354;50.194;7.690;2024-03-22T04:59:19;9.80;99.90
18450;DHT22;9354;50.194;7.690;2024-03-22T05:01:47;9.80;99.90
18450;DHT22;9354;50.194;7.690;2024-03-22T05:04:13;9.80;99.90
18450;DHT22;9354;50.194;7.690;2024-03-22T05:06:40;9.80;99.90
18450;DHT22;9354;50.194;7.690;2024-03-22T05:09:07;9.80;99.90
18450;DHT22;9354;50.194;7.690;2024-03-22T05:11:36;9.70;99.90
18450;DHT22;9354;50.194;7.690;2024-03-22T05:14:02;9.70;99.90
18450;DHT22;9354;50.194;7.690;2024-03-22T05:16:31;9.70;99.90
18450;DHT22;9354;50.194;7.690;2024-03-22T05:18:57;9.80;99.90
18450;DHT22;9354;50.194;7.690;2024-03-22T05:21:25;9.80;99.90
18450;DHT22;9354;50.194;7.690;2024-03-22T05:23:51;9.80;99.90
18450;DHT22;9354;50.194;7.690;2024-03-22T05:26:18;9.80;99.90
18450;DHT22;9354;50.194;7.690;2024-03-22T05:28:46;9.80;99.90
18450;DHT22;9354;50.194;7.690;2024-03-22T05:31:14;9.70;99.90
18450;DHT22;9354;50.194;7.690;2024-03-22T05:33:41;9.70;99.90
18450;DHT22;9354;50.194;7.690;2024-03-22T05:36:09;9.80;99.90
18450;DHT22;9354;50.194;7.690;2024-03-22T05:38:35;9.80;99.90
18450;DHT22;9354;50.194;7.690;2024-03-22T05:41:04;9.80;99.90
18450;DHT22;9354;50.194;7.690;2024-03-22T05:43:30;9.90;99.90
18450;DHT22;9354;50.194;7.690;2024-03-22T05:45:58;9.90;99.90
18450;DHT22;9354;50.194;7.690;2024-03-22T05:48:24;10.00;99.90
18450;DHT22;9354;50.194;7.690;2024-03-22T05:50:53;10.10;99.90
18450;DHT22;9354;50.194;7.690;2024-03-22T05:53:19;10.10;99.90
18450;DHT22;9354;50.194;7.690;2024-03-22T05:55:47;10.30;99.90
18450;DHT22;9354;50.194;7.690;2024-03-22T05:58:13;10.30;99.90
18450;DHT22;9354;50.194;7.690;2024-03-22T06:00:40;10.40;99.90
18450;DHT22;9354;50.194;7.690;2024-03-22T06:03:07;10.40;99.90
18450;DHT22;9354;50.194;7.690;2024-03-22T06:05:34;10.50;99.90
18450;DHT22;9354;50.194;7.690;2024-03-22T06:08:02;10.60;99.90
18450;DHT22;9354;50.194;7.690;2024-03-22T06:10:30;10.70;99.90
18450;DHT22;9354;50.194;7.690;2024-03-22T06:12:56;10.70;99.90
18450;DHT22;9354;50.194;7.690;2024-03-22T06:15:24;10.80;99.90
18450;DHT22;9354;50.194;7.690;2024-03-22T06:17:50;10.80;99.90
18450;DHT22;9354;50.194;7.690;2024-03-22T06:20:19;10.90;99.90
18450;DHT22;9354;50.194;7.690;2024-03-22T06:22:45;10.90;99.90
18450;DHT22;9354;50.194;7.690;2024-03-22T06:25:14;10.90;99.90
18450;DHT22;9354;50.194;7.690;2024-03-22T06:27:40;11.00;99.90
18450;DHT22;9354;50.194;7.690;2024-03-22T06:30:08;11.00;99.90
18450;DHT22;9354;50.194;7.690;2024-03-22T06:32:35;11.00;99.90
18450;DHT22;9354;50.194;7.690;2024-03-22T06:35:03;11.00;99.90
18450;DHT22;9354;50.194;7.690;2024-03-22T06:37:29;11.10;99.90
18450;DHT22;9354;50.194;7.690;2024-03-22T06:39:57;11.10;99.90
18450;DHT22;9354;50.194;7.690;2024-03-22T06:42:26;11.10;99.90
18450;DHT22;9354;50.194;7.690;2024-03-22T06:44:53;11.10;99.90
18450;DHT22;9354;50.194;7.690;2024-03-22T06:47:19;11.20;99.90
18450;DHT22;9354;50.194;7.690;2024-03-22T06:49:47;11.20;99.90
18450;DHT22;9354;50.194;7.690;2024-03-22T06:52:14;11.20;99.90
18450;DHT22;9354;50.194;7.690;2024-03-22T06:54:42;11.20;99.90
18450;DHT22;9354;50.194;7.690;2024-03-22T06:57:08;11.20;99.90
18450;DHT22;9354;50.194;7.690;2024-03-22T06:59:37;11.20;99.90
18450;DHT22;9354;50.194;7.690;2024-03-22T07:02:04;11.20;99.90
18450;DHT22;9354;50.194;7.690;2024-03-22T07:04:31;11.20;99.90
18450;DHT22;9354;50.194;7.690;2024-03-22T07:06:58;11.30;99.90
18450;DHT22;9354;50.194;7.690;2024-03-22T07:09:25;11.40;99.90
18450;DHT22;9354;50.194;7.690;2024-03-22T07:11:54;11.40;99.90
18450;DHT22;9354;50.194;7.690;2024-03-22T07:14:21;11.50;99.90
18450;DHT22;9354;50.194;7.690;2024-03-22T07:16:51;11.60;99.90
18450;DHT22;9354;50.194;7.690;2024-03-22T07:19:20;11.60;99.90
18450;DHT22;9354;50.194;7.690;2024-03-22T07:21:47;11.70;99.90
18450;DHT22;9354;50.194;7.690;2024-03-22T07:24:14;11.70;99.90
18450;DHT22;9354;50.194;7.690;2024-03-22T07:26:40;11.80;99.90
18450;DHT22;9354;50.194;7.690;2024-03-22T07:29:11;11.90;99.90
18450;DHT22;9354;50.194;7.690;2024-03-22T07:31:37;12.00;99.90
18450;DHT22;9354;50.194;7.690;2024-03-22T07:34:06;12.00;99.90
18450;DHT22;9354;50.194;7.690;2024-03-22T07:36:37;12.10;99.90
18450;DHT22;9354;50.194;7.690;2024-03-22T07:39:04;12.10;99.90
18450;DHT22;9354;50.194;7.690;2024-03-22T07:41:32;12.20;99.90
18450;DHT22;9354;50.194;7.690;2024-03-22T07:43:59;12.30;99.90
18450;DHT22;9354;50.194;7.690;2024-03-22T07:46:26;12.30;99.90
18450;DHT22;9354;50.194;7.690;2024-03-22T07:48:54;12.30;99.90
18450;DHT22;9354;50.194;7.690;2024-03-22T07:51:21;12.40;99.90
18450;DHT22;9354;50.194;7.690;2024-03-22T07:53:49;12.50;99.90
18450;DHT22;9354;50.194;7.690;2024-03-22T07:56:17;12.50;99.90
18450;DHT22;9354;50.194;7.690;2024-03-22T07:58:45;12.50;99.90
18450;DHT22;9354;50.194;7.690;2024-03-22T08:01:11;12.60;99.90
18450;DHT22;9354;50.194;7.690;2024-03-22T08:03:39;12.60;99.90
18450;DHT22;9354;50.194;7.690;2024-03-22T08:06:05;12.70;99.90
18450;DHT22;9354;50.194;7.690;2024-03-22T08:08:34;12.70;99.90
18450;DHT22;9354;50.194;7.690;2024-03-22T08:11:00;12.80;99.90
18450;DHT22;9354;50.194;7.690;2024-03-22T08:13:28;12.90;99.90
18450;DHT22;9354;50.194;7.690;2024-03-22T08:15:54;12.90;99.90
18450;DHT22;9354;50.194;7.690;2024-03-22T08:18:21;13.00;99.90
18450;DHT22;9354;50.194;7.690;2024-03-22T08:20:48;13.00;99.90
18450;DHT22;9354;50.194;7.690;2024-03-22T08:23:15;13.10;99.90
18450;DHT22;9354;50.194;7.690;2024-03-22T08:25:45;13.10;99.90
18450;DHT22;9354;50.194;7.690;2024-03-22T08:28:12;13.20;99.90
18450;DHT22;9354;50.194;7.690;2024-03-22T08:30:39;13.30;99.90
18450;DHT22;9354;50.194;7.690;2024-03-22T08:33:08;13.30;99.90
18450;DHT22;9354;50.194;7.690;2024-03-22T08:35:34;13.40;99.90
18450;DHT22;9354;50.194;7.690;2024-03-22T08:38:02;13.40;99.90
18450;DHT22;9354;50.194;7.690;2024-03-22T08:40:29;13.50;99.90
18450;DHT22;9354;50.194;7.690;2024-03-22T08:42:57;13.50;99.90
18450;DHT22;9354;50.194;7.690;2024-03-22T08:45:24;13.60;99.90
18450;DHT22;9354;50.194;7.690;2024-03-22T08:47:52;13.70;99.90
18450;DHT22;9354;50.194;7.690;2024-03-22T08:50:19;13.80;99.90
18450;DHT22;9354;50.194;7.690;2024-03-22T08:52:46;14.00;99.90
18450;DHT22;9354;50.194;7.690;2024-03-22T08:55:13;14.20;99.90
18450;DHT22;9354;50.194;7.690;2024-03-22T08:57:40;14.50;99.90
18450;DHT22;9354;50.194;7.690;2024-03-22T09:00:09;14.90;99.90
18450;DHT22;9354;50.194;7.690;2024-03-22T09:02:37;15.20;99.90
18450;DHT22;9354;50.194;7.690;2024-03-22T09:05:04;15.40;99.90
18450;DHT22;9354;50.194;7.690;2024-03-22T09:07:32;15.40;99.90
18450;DHT22;9354;50.194;7.690;2024-03-22T09:09:58;15.40;99.90
18450;DHT22;9354;50.194;7.690;2024-03-22T09:12:26;15.30;99.90
18450;DHT22;9354;50.194;7.690;2024-03-22T09:14:52;15.30;99.90
18450;DHT22;9354;50.194;7.690;2024-03-22T09:17:21;15.20;99.90
18450;DHT22;9354;50.194;7.690;2024-03-22T09:19:47;15.10;99.90
18450;DHT22;9354;50.194;7.690;2024-03-22T09:22:14;15.10;99.90
18450;DHT22;9354;50.194;7.690;2024-03-22T09:24:41;15.10;99.90
18450;DHT22;9354;50.194;7.690;2024-03-22T09:27:08;15.20;99.90
18450;DHT22;9354;50.194;7.690;2024-03-22T09:29:37;15.30;99.90
18450;DHT22;9354;50.194;7.690;2024-03-22T09:32:05;15.30;99.90
18450;DHT22;9354;50.194;7.690;2024-03-22T09:34:33;15.50;99.90
18450;DHT22;9354;50.194;7.690;2024-03-22T09:37:00;15.60;99.90
18450;DHT22;9354;50.194;7.690;2024-03-22T09:39:27;15.60;99.90
18450;DHT22;9354;50.194;7.690;2024-03-22T09:41:57;15.60;99.90
18450;DHT22;9354;50.194;7.690;2024-03-22T09:44:27;15.80;99.90
18450;DHT22;9354;50.194;7.690;2024-03-22T09:46:54;16.10;99.90
18450;DHT22;9354;50.194;7.690;2024-03-22T09:49:22;16.20;99.90
18450;DHT22;9354;50.194;7.690;2024-03-22T09:51:51;16.20;99.90
18450;DHT22;9354;50.194;7.690;2024-03-22T09:54:19;16.10;99.90
18450;DHT22;9354;50.194;7.690;2024-03-22T09:56:47;16.00;99.90
18450;DHT22;9354;50.194;7.690;2024-03-22T09:59:15;16.00;99.90
18450;DHT22;9354;50.194;7.690;2024-03-22T10:01:42;16.00;99.90
18450;DHT22;9354;50.194;7.690;2024-03-22T10:04:10;16.00;99.90
18450;DHT22;9354;50.194;7.690;2024-03-22T10:06:36;16.00;99.90
18450;DHT22;9354;50.194;7.690;2024-03-22T10:09:05;16.10;99.90
18450;DHT22;9354;50.194;7.690;2024-03-22T10:11:31;16.10;99.90
18450;DHT22;9354;50.194;7.690;2024-03-22T10:14:00;16.00;99.90
18450;DHT22;9354;50.194;7.690;2024-03-22T10:16:27;16.00;99.90
18450;DHT22;9354;50.194;7.690;2024-03-22T10:18:55;15.90;99.90
18450;DHT22;9354;50.194;7.690;2024-03-22T10:21:21;15.80;99.90
18450;DHT22;9354;50.194;7.690;2024-03-22T10:23:48;15.80;99.90
18450;DHT22;9354;50.194;7.690;2024-03-22T10:26:18;15.70;99.90
18450;DHT22;9354;50.194;7.690;2024-03-22T10:28:46;15.70;99.90
18450;DHT22;9354;50.194;7.690;2024-03-22T10:31:13;15.70;99.90
18450;DHT22;9354;50.194;7.690;2024-03-22T10:33:41;15.70;99.90
18450;DHT22;9354;50.194;7.690;2024-03-22T10:36:10;15.70;99.90
18450;DHT22;9354;50.194;7.690;2024-03-22T10:38:39;15.80;99.90
18450;DHT22;9354;50.194;7.690;2024-03-22T10:41:06;16.00;99.90
18450;DHT22;9354;50.194;7.690;2024-03-22T10:43:35;16.10;99.90
18450;DHT22;9354;50.194;7.690;2024-03-22T10:46:02;16.20;99.90
18450;DHT22;9354;50.194;7.690;2024-03-22T10:48:32;16.40;99.90
18450;DHT22;9354;50.194;7.690;2024-03-22T10:51:00;16.50;99.90
18450;DHT22;9354;50.194;7.690;2024-03-22T10:53:31;16.60;99.90
18450;DHT22;9354;50.194;7.690;2024-03-22T10:55:59;16.80;99.90
18450;DHT22;9354;50.194;7.690;2024-03-22T10:58:28;17.10;99.90
18450;DHT22;9354;50.194;7.690;2024-03-22T11:00:56;17.20;99.90
18450;DHT22;9354;50.194;7.690;2024-03-22T11:03:25;17.20;99.90
18450;DHT22;9354;50.194;7.690;2024-03-22T11:05:55;17.20;99.90
18450;DHT22;9354;50.194;7.690;2024-03-22T11:08:26;17.10;99.90
18450;DHT22;9354;50.194;7.690;2024-03-22T11:10:52;17.10;99.90
18450;DHT22;9354;50.194;7.690;2024-03-22T11:13:20;17.00;99.90
18450;DHT22;9354;50.194;7.690;2024-03-22T11:15:47;16.90;99.90
18450;DHT22;9354;50.194;7.690;2024-03-22T11:18:16;16.80;99.90
18450;DHT22;9354;50.194;7.690;2024-03-22T11:20:43;16.60;99.90
18450;DHT22;9354;50.194;7.690;2024-03-22T11:23:11;16.50;99.90
18450;DHT22;9354;50.194;7.690;2024-03-22T11:25:37;16.30;99.90
18450;DHT22;9354;50.194;7.690;2024-03-22T11:28:05;16.10;99.90
18450;DHT22;9354;50.194;7.690;2024-03-22T11:30:33;16.00;99.90
18450;DHT22;9354;50.194;7.690;2024-03-22T11:33:01;15.90;99.90
18450;DHT22;9354;50.194;7.690;2024-03-22T11:35:29;15.80;99.90
18450;DHT22;9354;50.194;7.690;2024-03-22T11:37:56;15.70;99.90
18450;DHT22;9354;50.194;7.690;2024-03-22T11:40:25;15.60;99.90
18450;DHT22;9354;50.194;7.690;2024-03-22T11:42:54;15.60;99.90
18450;DHT22;9354;50.194;7.690;2024-03-22T11:45:23;15.50;99.90
18450;DHT22;9354;50.194;7.690;2024-03-22T11:47:50;15.40;99.90
18450;DHT22;9354;50.194;7.690;2024-03-22T11:50:17;15.30;99.90
18450;DHT22;9354;50.194;7.690;2024-03-22T11:52:47;15.30;99.90
18450;DHT22;9354;50.194;7.690;2024-03-22T11:55:14;15.20;99.90
18450;DHT22;9354;50.194;7.690;2024-03-22T11:57:47;15.20;99.90
18450;DHT22;9354;50.194;7.690;2024-03-22T12:00:14;15.20;99.90
18450;DHT22;9354;50.194;7.690;2024-03-22T12:02:42;15.10;99.90
18450;DHT22;9354;50.194;7.690;2024-03-22T12:05:10;15.10;99.90
18450;DHT22;9354;50.194;7.690;2024-03-22T12:07:37;15.10;99.90
18450;DHT22;9354;50.194;7.690;2024-03-22T12:10:08;15.10;99.90
18450;DHT22;9354;50.194;7.690;2024-03-22T12:12:35;15.10;99.90
18450;DHT22;9354;50.194;7.690;2024-03-22T12:15:03;15.10;99.90
18450;DHT22;9354;50.194;7.690;2024-03-22T12:17:30;15.20;99.90
18450;DHT22;9354;50.194;7.690;2024-03-22T12:19:57;15.30;99.90
18450;DHT22;9354;50.194;7.690;2024-03-22T12:22:24;15.30;99.90
18450;DHT22;9354;50.194;7.690;2024-03-22T12:24:51;15.30;99.90
18450;DHT22;9354;50.194;7.690;2024-03-22T12:27:20;15.40;99.90
18450;DHT22;9354;50.194;7.690;2024-03-22T12:29:46;15.50;99.90
18450;DHT22;9354;50.194;7.690;2024-03-22T12:32:14;15.60;99.90
18450;DHT22;9354;50.194;7.690;2024-03-22T12:34:40;15.70;99.90
18450;DHT22;9354;50.194;7.690;2024-03-22T12:37:08;15.80;99.90
18450;DHT22;9354;50.194;7.690;2024-03-22T12:39:35;15.80;99.90
18450;DHT22;9354;50.194;7.690;2024-03-22T12:42:03;15.80;99.90
18450;DHT22;9354;50.194;7.690;2024-03-22T12:44:31;15.90;99.90
18450;DHT22;9354;50.194;7.690;2024-03-22T12:46:58;15.90;99.90
18450;DHT22;9354;50.194;7.690;2024-03-22T12:49:25;15.80;99.90
18450;DHT22;9354;50.194;7.690;2024-03-22T12:51:52;15.80;99.90
18450;DHT22;9354;50.194;7.690;2024-03-22T12:54:19;15.70;99.90
18450;DHT22;9354;50.194;7.690;2024-03-22T12:56:47;15.70;99.90
18450;DHT22;9354;50.194;7.690;2024-03-22T12:59:14;15.60;99.90
18450;DHT22;9354;50.194;7.690;2024-03-22T13:01:43;15.60;99.90
18450;DHT22;9354;50.194;7.690;2024-03-22T13:04:10;15.60;99.90
18450;DHT22;9354;50.194;7.690;2024-03-22T13:06:37;15.60;99.90
18450;DHT22;9354;50.194;7.690;2024-03-22T13:09:05;15.60;99.90
18450;DHT22;9354;50.194;7.690;2024-03-22T13:11:32;15.50;99.90
18450;DHT22;9354;50.194;7.690;2024-03-22T13:13:59;15.50;99.90
18450;DHT22;9354;50.194;7.690;2024-03-22T13:16:27;15.40;99.90
18450;DHT22;9354;50.194;7.690;2024-03-22T13:18:56;15.40;99.90
18450;DHT22;9354;50.194;7.690;2024-03-22T13:21:22;15.40;99.90
18450;DHT22;9354;50.194;7.690;2024-03-22T13:23:49;15.30;99.90
18450;DHT22;9354;50.194;7.690;2024-03-22T13:26:16;15.30;99.90
18450;DHT22;9354;50.194;7.690;2024-03-22T13:28:43;15.30;99.90
18450;DHT22;9354;50.194;7.690;2024-03-22T13:31:09;15.30;99.90
18450;DHT22;9354;50.194;7.690;2024-03-22T13:33:37;15.30;99.90
18450;DHT22;9354;50.194;7.690;2024-03-22T13:36:05;15.30;99.90
18450;DHT22;9354;50.194;7.690;2024-03-22T13:38:32;15.30;99.90
18450;DHT22;9354;50.194;7.690;2024-03-22T13:40:59;15.40;99.90
18450;DHT22;9354;50.194;7.690;2024-03-22T13:43:26;15.40;99.90
18450;DHT22;9354;50.194;7.690;2024-03-22T13:45:53;15.40;99.90
18450;DHT22;9354;50.194;7.690;2024-03-22T13:48:21;15.50;99.90
18450;DHT22;9354;50.194;7.690;2024-03-22T13:50:52;15.40;99.90
18450;DHT22;9354;50.194;7.690;2024-03-22T13:53:21;15.40;99.90
18450;DHT22;9354;50.194;7.690;2024-03-22T13:55:48;15.40;99.90
18450;DHT22;9354;50.194;7.690;2024-03-22T13:58:15;15.40;99.90
18450;DHT22;9354;50.194;7.690;2024-03-22T14:00:42;15.40;99.90
18450;DHT22;9354;50.194;7.690;2024-03-22T14:03:09;15.50;99.90
18450;DHT22;9354;50.194;7.690;2024-03-22T14:05:36;15.40;99.90
18450;DHT22;9354;50.194;7.690;2024-03-22T14:08:04;15.40;99.90
18450;DHT22;9354;50.194;7.690;2024-03-22T14:10:32;15.40;99.90
18450;DHT22;9354;50.194;7.690;2024-03-22T14:12:59;15.30;99.90
18450;DHT22;9354;50.194;7.690;2024-03-22T14:15:26;15.30;99.90
18450;DHT22;9354;50.194;7.690;2024-03-22T14:17:57;15.40;99.90
18450;DHT22;9354;50.194;7.690;2024-03-22T14:20:24;15.40;99.90
18450;DHT22;9354;50.194;7.690;2024-03-22T14:22:51;15.50;99.90
18450;DHT22;9354;50.194;7.690;2024-03-22T14:25:18;15.50;99.90
18450;DHT22;9354;50.194;7.690;2024-03-22T14:27:48;15.60;99.90
18450;DHT22;9354;50.194;7.690;2024-03-22T14:30:15;15.60;99.90
18450;DHT22;9354;50.194;7.690;2024-03-22T14:32:42;15.70;99.90
18450;DHT22;9354;50.194;7.690;2024-03-22T14:35:10;15.70;99.90
18450;DHT22;9354;50.194;7.690;2024-03-22T14:37:37;15.70;99.90
18450;DHT22;9354;50.194;7.690;2024-03-22T14:40:06;15.80;99.90
18450;DHT22;9354;50.194;7.690;2024-03-22T14:42:36;15.80;99.90
18450;DHT22;9354;50.194;7.690;2024-03-22T14:45:06;15.90;99.90
18450;DHT22;9354;50.194;7.690;2024-03-22T14:47:36;16.00;99.90
18450;DHT22;9354;50.194;7.690;2024-03-22T14:50:04;16.20;99.90
18450;DHT22;9354;50.194;7.690;2024-03-22T14:52:30;16.20;99.90
18450;DHT22;9354;50.194;7.690;2024-03-22T14:54:58;16.30;99.90
18450;DHT22;9354;50.194;7.690;2024-03-22T14:57:25;16.20;99.90
18450;DHT22;9354;50.194;7.690;2024-03-22T14:59:51;16.10;99.90
18450;DHT22;9354;50.194;7.690;2024-03-22T15:02:20;16.00;99.90
18450;DHT22;9354;50.194;7.690;2024-03-22T15:04:47;15.90;99.90
18450;DHT22;9354;50.194;7.690;2024-03-22T15:07:14;15.80;99.90
18450;DHT22;9354;50.194;7.690;2024-03-22T15:09:42;15.80;99.90
18450;DHT22;9354;50.194;7.690;2024-03-22T15:12:09;15.80;99.90
18450;DHT22;9354;50.194;7.690;2024-03-22T15:14:35;15.80;99.90
18450;DHT22;9354;50.194;7.690;2024-03-22T15:17:03;15.80;99.90
18450;DHT22;9354;50.194;7.690;2024-03-22T15:19:31;15.80;99.90
18450;DHT22;9354;50.194;7.690;2024-03-22T15:21:58;15.90;99.90
18450;DHT22;9354;50.194;7.690;2024-03-22T15:24:26;16.00;99.90
18450;DHT22;9354;50.194;7.690;2024-03-22T15:26:53;16.10;99.90
18450;DHT22;9354;50.194;7.690;2024-03-22T15:29:20;16.20;99.90
18450;DHT22;9354;50.194;7.690;2024-03-22T15:31:48;16.40;99.90
18450;DHT22;9354;50.194;7.690;2024-03-22T15:34:14;16.60;99.90
18450;DHT22;9354;50.194;7.690;2024-03-22T15:36:43;16.80;99.90
18450;DHT22;9354;50.194;7.690;2024-03-22T15:39:10;16.90;99.90
18450;DHT22;9354;50.194;7.690;2024-03-22T15:41:37;17.00;99.90
18450;DHT22;9354;50.194;7.690;2024-03-22T15:44:03;17.00;99.90
18450;DHT22;9354;50.194;7.690;2024-03-22T15:46:31;17.00;99.90
18450;DHT22;9354;50.194;7.690;2024-03-22T15:48:57;17.10;99.90
18450;DHT22;9354;50.194;7.690;2024-03-22T15:51:24;17.10;99.90